Time;durP1;ratioP1;P1;durP2;ratioP2;P2;SDS_P1;SDS_P2;PMS_P1;PMS_P2;Temp;Humidity;BMP_temperature;BMP_pressure;BME280_temperature;BME280_humidity;BME280_pressure;Samples;Min_cycle;Max_cycle;Signal;HPM_P1;HPM_P2
2021/12/03 00:01:33;;;;;;;10.05;4.22;;;27.10;63.80;;;;;;4153008;28;20448;-55
2021/12/03 00:03:37;;;;;;;10.35;4.47;;;27.10;63.80;;;;;;4154927;28;20048;-48
2021/12/03 00:05:40;;;;;;;9.98;4.05;;;27.10;63.80;;;;;;4149674;28;21037;-56
2021/12/03 00:07:42;;;;;;;10.45;4.22;;;27.20;63.80;;;;;;4149720;28;20057;-53
2021/12/03 00:09:44;;;;;;;7.95;3.35;;;27.20;64.00;;;;;;4151080;28;20075;-57
2021/12/03 00:11:46;;;;;;;7.82;3.60;;;27.20;63.80;;;;;;4149998;28;20723;-53
2021/12/03 00:13:49;;;;;;;8.68;3.25;;;27.20;63.80;;;;;;4152051;28;20048;-55
2021/12/03 00:15:53;;;;;;;8.27;3.92;;;27.30;63.80;;;;;;4155752;28;20056;-52
2021/12/03 00:17:55;;;;;;;6.82;3.13;;;27.30;63.80;;;;;;4154578;28;20623;-54
2021/12/03 00:19:58;;;;;;;7.13;3.05;;;27.30;63.70;;;;;;4149263;28;20048;-50
2021/12/03 00:22:00;;;;;;;7.57;3.70;;;27.30;63.80;;;;;;4149815;28;20439;-56
2021/12/03 00:24:02;;;;;;;6.87;2.90;;;27.30;63.80;;;;;;4168251;28;20805;-56
2021/12/03 00:26:06;;;;;;;9.33;3.10;;;27.40;63.80;;;;;;4150573;28;20049;-54
2021/12/03 00:28:08;;;;;;;6.57;2.70;;;27.40;63.70;;;;;;4152158;28;20129;-56
2021/12/03 00:30:13;;;;;;;6.80;3.13;;;27.40;63.60;;;;;;4155590;28;20126;-56
2021/12/03 00:32:15;;;;;;;6.65;3.30;;;27.50;63.60;;;;;;4151447;28;20480;-58
2021/12/03 00:34:17;;;;;;;5.07;2.47;;;27.50;63.60;;;;;;4145266;28;20052;-54
2021/12/03 00:36:19;;;;;;;5.25;2.72;;;27.50;63.60;;;;;;4145921;28;20049;-53
2021/12/03 00:38:22;;;;;;;5.32;2.90;;;27.50;63.50;;;;;;4148552;28;20052;-52
2021/12/03 00:40:30;;;;;;;6.18;2.95;;;27.50;63.60;;;;;;4147731;28;20462;-53
2021/12/03 00:42:33;;;;;;;6.32;2.83;;;27.50;63.30;;;;;;4149391;28;20057;-53
2021/12/03 00:44:34;;;;;;;;;;;27.60;63.40;;;;;;4150785;28;20154;-53
2021/12/03 00:46:36;;;;;;;6.65;2.50;;;27.60;63.40;;;;;;4153825;28;19928;-51
2021/12/03 00:48:39;;;;;;;6.95;2.85;;;27.60;63.30;;;;;;4150265;28;20048;-55
2021/12/03 00:50:41;;;;;;;5.05;2.42;;;27.60;63.20;;;;;;4147353;28;20368;-55
2021/12/03 00:52:43;;;;;;;5.90;2.75;;;27.60;63.10;;;;;;4147437;28;20836;-56
2021/12/03 00:54:46;;;;;;;4.88;2.45;;;27.60;63.10;;;;;;4149265;28;20052;-51
2021/12/03 00:56:48;;;;;;;6.43;2.63;;;27.70;63.20;;;;;;4152260;28;20946;-50
2021/12/03 00:58:50;;;;;;;5.05;2.95;;;27.70;63.50;;;;;;4156187;28;20048;-47
2021/12/03 01:02:13;;;;;;;6.93;2.83;;;27.70;62.80;;;;;;4163961;27;20961;-51
2021/12/03 01:04:15;;;;;;;5.03;2.40;;;27.70;63.40;;;;;;4163961;28;20055;-52
2021/12/03 01:06:17;;;;;;;5.35;2.20;;;27.70;63.20;;;;;;4170102;28;20063;-60
2021/12/03 01:08:19;;;;;;;8.02;3.10;;;27.80;63.30;;;;;;4149261;28;20077;-54
2021/12/03 01:10:23;;;;;;;6.97;2.05;;;27.80;63.10;;;;;;4168544;28;21449;-58
2021/12/03 01:12:25;;;;;;;4.72;2.35;;;27.80;62.80;;;;;;4170413;28;20105;-50
2021/12/03 01:14:27;;;;;;;4.97;2.23;;;27.80;62.70;;;;;;4169549;28;20056;-49
2021/12/03 01:16:31;;;;;;;5.15;2.13;;;27.80;63.20;;;;;;4167925;28;20159;-48
2021/12/03 01:18:34;;;;;;;5.95;2.38;;;27.80;62.40;;;;;;4170930;28;20093;-49
2021/12/03 01:20:36;;;;;;;;;;;27.80;62.30;;;;;;4175684;28;20052;-49
2021/12/03 01:22:38;;;;;;;5.70;2.63;;;27.80;62.20;;;;;;4173025;28;19928;-47
2021/12/03 01:24:40;;;;;;;5.00;2.53;;;27.80;62.20;;;;;;4167143;28;20052;-50
2021/12/03 01:26:44;;;;;;;4.35;2.40;;;27.80;62.10;;;;;;4167118;28;20052;-45
2021/12/03 01:28:47;;;;;;;5.90;2.72;;;27.80;62.00;;;;;;4168820;28;20122;-48
2021/12/03 01:30:49;;;;;;;6.00;2.80;;;27.80;61.90;;;;;;4170007;28;20679;-50
2021/12/03 01:32:53;;;;;;;5.07;2.83;;;27.80;61.80;;;;;;4175794;28;20044;-50
2021/12/03 01:34:54;;;;;;;;;;;27.80;61.80;;;;;;4178849;28;20080;-49
2021/12/03 01:36:56;;;;;;;7.10;3.08;;;27.80;61.90;;;;;;4175014;28;19928;-47
2021/12/03 01:38:59;;;;;;;6.72;2.70;;;27.80;61.80;;;;;;4170468;28;21123;-53
2021/12/03 01:41:01;;;;;;;4.97;2.72;;;27.80;61.70;;;;;;4169424;28;20133;-48
2021/12/03 01:43:05;;;;;;;6.00;3.00;;;27.80;61.80;;;;;;4167640;28;20056;-49
2021/12/03 01:45:09;;;;;;;5.13;2.80;;;27.80;61.70;;;;;;4166711;28;20294;-53
2021/12/03 01:47:11;;;;;;;4.25;2.40;;;27.80;61.70;;;;;;4166405;28;20091;-48
2021/12/03 01:49:14;;;;;;;4.80;2.53;;;27.80;61.70;;;;;;4174948;28;20104;-52
2021/12/03 01:51:16;;;;;;;;;;;27.80;61.70;;;;;;4172982;28;20061;-58
2021/12/03 01:53:21;;;;;;;4.38;2.58;;;27.80;61.70;;;;;;4167895;28;20231;-54
2021/12/03 01:55:24;;;;;;;4.55;2.53;;;27.70;61.60;;;;;;4163751;28;20067;-45
2021/12/03 01:57:27;;;;;;;5.68;2.85;;;27.80;61.70;;;;;;4167416;28;20458;-46
2021/12/03 01:59:29;;;;;;;5.93;2.92;;;27.70;61.70;;;;;;4165845;28;20064;-49
2021/12/03 02:01:31;;;;;;;6.90;3.50;;;27.70;61.60;;;;;;4171538;28;20063;-57
2021/12/03 02:03:37;;;;;;;5.32;3.35;;;27.70;61.50;;;;;;4172846;28;20527;-46
2021/12/03 02:05:39;;;;;;;6.28;3.55;;;27.70;61.40;;;;;;4169514;28;20131;-46
2021/12/03 02:07:43;;;;;;;6.60;3.30;;;27.70;61.40;;;;;;4163740;28;20133;-57
2021/12/03 02:09:45;;;;;;;6.20;3.30;;;27.70;61.50;;;;;;4167582;28;21162;-52
2021/12/03 02:11:47;;;;;;;8.63;3.72;;;27.70;61.40;;;;;;4164290;28;20063;-51
2021/12/03 02:13:50;;;;;;;6.10;3.55;;;27.70;61.40;;;;;;4153542;28;20120;-52
2021/12/03 02:15:53;;;;;;;7.25;3.60;;;27.60;61.40;;;;;;4150760;28;20740;-49
2021/12/03 02:17:55;;;;;;;7.00;3.38;;;27.60;61.60;;;;;;4157158;28;20055;-52
2021/12/03 02:19:58;;;;;;;5.93;3.42;;;27.60;61.80;;;;;;4156691;28;20109;-50
2021/12/03 02:22:00;;;;;;;6.97;3.58;;;27.70;62.00;;;;;;4152960;28;21238;-51
2021/12/03 02:24:02;;;;;;;6.30;2.70;;;27.70;62.20;;;;;;4154557;28;20234;-54
2021/12/03 02:26:05;;;;;;;5.13;3.10;;;27.70;62.20;;;;;;4153190;28;20229;-49
2021/12/03 02:28:07;;;;;;;6.05;2.88;;;27.70;62.20;;;;;;4154683;28;20579;-48
2021/12/03 02:30:10;;;;;;;5.33;3.17;;;27.70;62.40;;;;;;4157127;28;20063;-49
2021/12/03 02:32:12;;;;;;;6.72;2.65;;;27.70;62.40;;;;;;4159575;28;20051;-53
2021/12/03 02:34:14;;;;;;;6.00;2.37;;;27.70;62.30;;;;;;4155091;28;21448;-47
2021/12/03 02:36:17;;;;;;;4.50;2.70;;;27.80;62.50;;;;;;4152768;28;20321;-52
2021/12/03 02:38:21;;;;;;;;;;;27.80;62.50;;;;;;4152426;28;20058;-51
2021/12/03 02:40:24;;;;;;;5.45;2.47;;;27.70;62.50;;;;;;4153495;28;20316;-53
2021/12/03 02:42:27;;;;;;;7.40;3.10;;;27.80;62.80;;;;;;4155918;28;20612;-49
2021/12/03 02:44:29;;;;;;;6.87;3.53;;;27.80;62.70;;;;;;4158232;28;20071;-53
2021/12/03 02:46:31;;;;;;;11.63;3.70;;;27.80;62.30;;;;;;4159053;28;20318;-54
2021/12/03 02:48:35;;;;;;;5.73;3.90;;;27.80;61.70;;;;;;4154478;28;21739;-53
2021/12/03 02:50:37;;;;;;;7.15;4.15;;;27.80;61.60;;;;;;4154048;28;20336;-55
2021/12/03 02:52:40;;;;;;;5.32;3.53;;;27.80;61.50;;;;;;4155205;28;20139;-56
2021/12/03 02:54:42;;;;;;;;;;;27.80;61.40;;;;;;4155637;28;20060;-51
2021/12/03 02:56:44;;;;;;;6.05;3.55;;;27.80;61.40;;;;;;4156963;28;19921;-54
2021/12/03 02:58:46;;;;;;;5.80;3.40;;;27.70;61.30;;;;;;4159170;28;20212;-55
2021/12/03 03:00:53;;;;;;;6.35;3.70;;;27.70;61.20;;;;;;4155290;28;20398;-53
2021/12/03 03:02:56;;;;;;;4.90;3.15;;;27.70;61.90;;;;;;4157017;28;20137;-56
2021/12/03 03:04:58;;;;;;;7.20;3.50;;;27.70;61.30;;;;;;4151068;28;20672;-52
2021/12/03 03:07:00;;;;;;;7.18;3.42;;;27.70;61.20;;;;;;4153611;28;20059;-54
2021/12/03 03:09:08;;;;;;;4.70;3.00;;;27.80;61.30;;;;;;4151284;28;20047;-51
2021/12/03 03:11:10;;;;;;;5.25;3.00;;;27.80;61.30;;;;;;4154569;28;20720;-54
2021/12/03 03:13:12;;;;;;;;;;;27.80;61.40;;;;;;4152152;28;20048;-51
2021/12/03 03:15:16;;;;;;;4.72;2.90;;;27.80;61.20;;;;;;4157979;28;19924;-54
2021/12/03 03:17:19;;;;;;;5.90;2.75;;;27.80;61.10;;;;;;4156002;28;20136;-53
2021/12/03 03:19:23;;;;;;;5.60;3.10;;;27.80;61.10;;;;;;4156577;28;20183;-53
2021/12/03 03:21:28;;;;;;;4.28;2.92;;;27.80;61.00;;;;;;4155958;28;20814;-52
2021/12/03 03:23:32;;;;;;;5.57;3.13;;;27.80;61.70;;;;;;4154400;28;20541;-54
2021/12/03 03:25:34;;;;;;;5.35;3.22;;;27.80;60.90;;;;;;4154038;28;20110;-52
2021/12/03 03:27:36;;;;;;;5.53;3.30;;;27.80;60.90;;;;;;4154127;28;20145;-52
2021/12/03 03:29:40;;;;;;;4.60;2.92;;;27.80;61.00;;;;;;4157080;28;20092;-53
2021/12/03 03:31:43;;;;;;;6.30;3.05;;;27.80;60.90;;;;;;4156642;28;20049;-53
2021/12/03 03:33:45;;;;;;;5.63;2.78;;;27.80;60.80;;;;;;4159638;28;20048;-52
2021/12/03 03:35:47;;;;;;;5.15;3.17;;;27.80;60.80;;;;;;4153894;28;20056;-54
2021/12/03 03:37:49;;;;;;;5.97;3.00;;;27.80;60.70;;;;;;4154699;28;20137;-51
2021/12/03 03:39:51;;;;;;;8.40;3.28;;;27.90;60.70;;;;;;4148905;28;20063;-56
2021/12/03 03:41:53;;;;;;;6.32;3.22;;;27.90;60.70;;;;;;4148063;28;20727;-54
2021/12/03 03:43:55;;;;;;;7.03;2.83;;;27.90;60.70;;;;;;4154383;28;20044;-52
2021/12/03 03:45:58;;;;;;;7.22;3.45;;;27.80;60.60;;;;;;4153152;28;20053;-51
2021/12/03 03:48:01;;;;;;;5.22;3.13;;;27.80;60.70;;;;;;4150431;28;21608;-50
2021/12/03 03:50:03;;;;;;;5.85;3.40;;;27.80;60.60;;;;;;4148663;28;20048;-49
2021/12/03 03:52:06;;;;;;;5.25;3.17;;;27.80;61.20;;;;;;4150141;28;20058;-48
2021/12/03 03:54:08;;;;;;;5.68;3.03;;;27.80;61.30;;;;;;4150856;28;20090;-51
2021/12/03 03:56:11;;;;;;;5.13;3.22;;;27.90;61.60;;;;;;4150276;28;20099;-52
2021/12/03 03:58:13;;;;;;;;;;;27.90;61.70;;;;;;4155547;28;20048;-54
2021/12/03 05:39:27;;;;;;;5.85;3.53;;;27.50;58.00;;;;;;4886623;23;3221891;-71
2021/12/03 05:41:29;;;;;;;7.32;3.38;;;27.30;55.70;;;;;;5013377;23;20849;-72
2021/12/03 05:43:31;;;;;;;5.10;3.63;;;27.20;54.40;;;;;;4991179;23;20031;-72
2021/12/03 05:45:36;;;;;;;5.55;3.20;;;26.90;53.00;;;;;;4989062;23;20041;-70
2021/12/03 05:47:38;;;;;;;5.30;3.22;;;26.80;52.30;;;;;;5013510;23;20034;-73
2021/12/03 05:49:41;;;;;;;6.63;2.93;;;26.50;52.10;;;;;;5019321;23;20196;-70
2021/12/03 05:51:44;;;;;;;5.88;3.42;;;26.40;52.00;;;;;;5016935;23;20364;-67
2021/12/03 05:53:46;;;;;;;5.40;3.50;;;26.20;51.20;;;;;;4991540;23;20026;-70
2021/12/03 05:55:49;;;;;;;5.45;3.38;;;26.10;51.20;;;;;;5014020;23;20026;-71
2021/12/03 05:57:51;;;;;;;;;;;26.00;51.00;;;;;;4989310;23;20048;-70
2021/12/03 05:59:53;;;;;;;5.25;3.35;;;25.90;51.00;;;;;;5013522;23;19917;-70
2021/12/03 06:01:56;;;;;;;7.80;3.15;;;25.70;50.60;;;;;;5015590;23;20049;-70
2021/12/03 06:03:58;;;;;;;5.35;2.80;;;25.70;50.80;;;;;;5018748;23;20026;-72
2021/12/03 06:06:01;;;;;;;5.23;3.20;;;25.50;50.50;;;;;;5017502;23;20026;-73
2021/12/03 06:08:03;;;;;;;5.00;3.10;;;25.40;50.40;;;;;;4992068;23;20376;-71
2021/12/03 06:10:06;;;;;;;5.65;3.25;;;25.30;50.40;;;;;;5014200;23;20113;-71
2021/12/03 06:12:09;;;;;;;4.80;3.05;;;25.20;50.30;;;;;;5018656;23;20141;-72
2021/12/03 06:14:11;;;;;;;5.00;2.75;;;25.10;50.30;;;;;;5019223;23;20085;-73
2021/12/03 06:16:15;;;;;;;5.18;3.05;;;25.00;50.20;;;;;;5023091;23;20108;-72
2021/12/03 06:18:19;;;;;;;5.68;3.15;;;24.90;50.30;;;;;;5029849;23;20026;-69
2021/12/03 06:20:22;;;;;;;4.88;2.83;;;24.80;50.30;;;;;;4999726;23;20105;-71
2021/12/03 06:22:24;;;;;;;4.97;3.00;;;24.70;50.50;;;;;;4998761;23;20651;-72
2021/12/03 06:24:26;;;;;;;5.20;2.87;;;24.60;50.20;;;;;;5020048;23;20023;-71
2021/12/03 06:26:28;;;;;;;6.50;3.25;;;24.50;50.30;;;;;;4997105;23;20405;-77
2021/12/03 06:28:32;;;;;;;6.23;2.73;;;24.40;50.50;;;;;;4994844;23;20050;-70
2021/12/03 06:30:34;;;;;;;6.35;3.35;;;24.30;50.70;;;;;;5018851;23;20114;-72
2021/12/03 06:32:37;;;;;;;5.15;3.08;;;24.20;50.70;;;;;;5018058;23;20026;-71
2021/12/03 06:34:40;;;;;;;5.68;3.00;;;24.10;50.90;;;;;;4991535;23;20034;-69
2021/12/03 06:36:42;;;;;;;6.07;3.37;;;24.00;50.80;;;;;;5015822;23;20158;-72
2021/12/03 06:38:44;;;;;;;6.22;3.35;;;23.90;51.60;;;;;;4989247;23;20038;-73
2021/12/03 06:40:47;;;;;;;8.75;3.35;;;23.80;51.60;;;;;;4988820;23;20031;-71
2021/12/03 06:42:50;;;;;;;4.95;2.90;;;23.80;53.10;;;;;;4988864;23;20023;-72
2021/12/03 06:44:53;;;;;;;6.07;2.72;;;23.90;53.50;;;;;;5016992;23;20376;-72
2021/12/03 06:46:55;;;;;;;3.92;2.22;;;23.90;53.90;;;;;;4993278;23;20030;-70
2021/12/03 06:48:58;;;;;;;4.28;2.08;;;24.00;54.40;;;;;;4988845;23;20027;-71
2021/12/03 06:51:06;;;;;;;3.77;2.23;;;24.00;54.60;;;;;;5014650;23;20026;-79
2021/12/03 06:53:11;;;;;;;3.08;1.70;;;24.00;54.90;;;;;;4986233;23;20027;-74
2021/12/03 06:55:15;;;;;;;4.28;2.10;;;24.10;55.40;;;;;;5009074;23;20046;-74
2021/12/03 06:57:17;;;;;;;6.97;2.00;;;24.10;56.00;;;;;;4991450;23;20667;-75
2021/12/03 06:59:20;;;;;;;5.32;2.15;;;24.10;56.40;;;;;;4996455;23;20380;-75
2021/12/03 07:27:51;;;;;;;5.57;2.57;;;24.70;59.90;;;;;;4953170;23;2739108;-56
2021/12/03 07:29:53;;;;;;;5.82;2.25;;;24.70;59.80;;;;;;5029537;23;20282;-51
2021/12/03 07:31:56;;;;;;;5.68;2.10;;;24.70;59.70;;;;;;5053160;23;20025;-54
2021/12/03 07:33:58;;;;;;;4.40;1.90;;;24.70;59.80;;;;;;5020765;23;20616;-56
2021/12/03 07:36:00;;;;;;;3.47;1.90;;;24.70;59.80;;;;;;5043836;23;20055;-57
2021/12/03 07:38:02;;;;;;;4.13;1.67;;;24.70;59.80;;;;;;5028945;23;20037;-59
2021/12/03 07:40:06;;;;;;;3.40;1.60;;;24.80;59.90;;;;;;5031790;23;20049;-45
2021/12/03 07:42:09;;;;;;;3.58;1.50;;;24.70;59.90;;;;;;5033030;23;20801;-57
2021/12/03 07:44:11;;;;;;;3.13;1.75;;;24.80;59.90;;;;;;5027225;23;20030;-59
2021/12/03 07:46:15;;;;;;;3.50;1.70;;;24.80;59.90;;;;;;5023887;23;20029;-58
2021/12/03 07:48:21;;;;;;;4.20;1.73;;;24.80;60.00;;;;;;5026962;23;20021;-58
2021/12/03 07:50:23;;;;;;;5.60;1.70;;;24.80;60.00;;;;;;5054518;23;20128;-58
2021/12/03 07:52:26;;;;;;;3.63;1.50;;;24.80;60.10;;;;;;5024067;23;20160;-60
2021/12/03 07:54:29;;;;;;;3.90;1.65;;;24.80;60.10;;;;;;5047691;23;20678;-61
2021/12/03 07:56:31;;;;;;;2.78;1.67;;;24.80;60.20;;;;;;5051724;23;20419;-61
2021/12/03 07:58:33;;;;;;;5.40;1.85;;;24.80;60.20;;;;;;5028831;23;20657;-54
2021/12/03 08:00:36;;;;;;;3.35;1.45;;;24.80;60.20;;;;;;5048187;23;20256;-50
2021/12/03 08:02:38;;;;;;;3.85;1.80;;;24.80;60.40;;;;;;5048113;23;20103;-55
2021/12/03 08:04:40;;;;;;;2.67;1.20;;;24.80;60.40;;;;;;5020717;23;20041;-50
2021/12/03 08:06:44;;;;;;;4.18;1.70;;;24.80;60.40;;;;;;5021500;23;20037;-48
2021/12/03 08:08:46;;;;;;;4.25;1.50;;;24.80;60.40;;;;;;5021830;23;20109;-57
2021/12/03 08:10:49;;;;;;;4.80;1.70;;;24.80;60.40;;;;;;5055461;23;20033;-54
2021/12/03 08:12:51;;;;;;;;;;;24.80;60.50;;;;;;5053506;23;20037;-60
2021/12/03 08:14:53;;;;;;;5.15;1.85;;;24.80;60.60;;;;;;5049791;23;19927;-60
2021/12/03 08:16:55;;;;;;;7.32;1.77;;;24.90;60.80;;;;;;5024022;23;20041;-62
2021/12/03 08:18:57;;;;;;;9.68;2.20;;;24.80;60.80;;;;;;5048778;23;20331;-58
2021/12/03 08:21:00;;;;;;;6.45;2.13;;;24.90;61.20;;;;;;5048804;23;20037;-59
2021/12/03 08:23:02;;;;;;;4.72;2.10;;;24.90;61.40;;;;;;5029475;23;20652;-57
2021/12/03 08:25:05;;;;;;;7.10;2.10;;;24.90;61.60;;;;;;5053765;23;20203;-58
2021/12/03 08:27:07;;;;;;;6.30;2.10;;;24.90;61.50;;;;;;5024508;23;21065;-57
2021/12/03 08:29:10;;;;;;;4.80;2.55;;;24.90;61.50;;;;;;5050587;23;20159;-56
2021/12/03 08:31:14;;;;;;;6.43;1.70;;;24.90;61.70;;;;;;5024014;23;20831;-61
2021/12/03 08:33:17;;;;;;;3.85;2.15;;;24.90;61.70;;;;;;5046970;23;21185;-64
2021/12/03 08:35:19;;;;;;;5.30;1.90;;;24.90;61.80;;;;;;5046597;23;20367;-62
2021/12/03 08:37:21;;;;;;;5.05;1.63;;;25.00;61.70;;;;;;5048935;23;20132;-62
2021/12/03 08:39:23;;;;;;;3.67;1.58;;;25.00;61.80;;;;;;5049524;23;20033;-61
2021/12/03 08:41:26;;;;;;;4.00;1.42;;;25.00;61.80;;;;;;5020723;23;20211;-61
2021/12/03 08:43:28;;;;;;;2.83;1.25;;;25.00;61.80;;;;;;5036225;23;20121;-62
2021/12/03 08:45:31;;;;;;;3.15;1.33;;;25.00;61.80;;;;;;5035655;23;20064;-61
2021/12/03 08:47:35;;;;;;;2.67;1.33;;;25.00;61.80;;;;;;5009597;23;20674;-61
2021/12/03 08:49:52;;;;;;;2.35;1.10;;;25.10;62.60;;;;;;5043713;23;20633;-63
2021/12/03 08:56:26;;;;;;;1.73;0.85;;;25.10;62.00;;;;;;5067764;23;20105;-70
2021/12/03 08:58:28;;;;;;;2.72;1.00;;;25.10;61.90;;;;;;5066651;23;20854;-71
2021/12/03 09:00:30;;;;;;;2.45;1.00;;;25.10;61.90;;;;;;5063149;23;20345;-70
2021/12/03 09:02:32;;;;;;;3.15;1.60;;;25.10;61.90;;;;;;5040797;23;20064;-71
2021/12/03 09:04:34;;;;;;;2.70;0.95;;;25.20;62.00;;;;;;5065129;23;20021;-70
2021/12/03 09:06:37;;;;;;;2.47;1.20;;;25.10;61.90;;;;;;5071352;23;20547;-70
2021/12/03 09:08:39;;;;;;;2.08;1.08;;;25.10;62.10;;;;;;5051153;23;20058;-69
2021/12/03 09:10:43;;;;;;;2.88;1.17;;;25.20;62.00;;;;;;5079810;23;20036;-70
2021/12/03 09:12:46;;;;;;;1.58;1.10;;;25.20;62.00;;;;;;5077798;23;20120;-71
2021/12/03 09:15:00;;;;;;;2.80;0.85;;;25.20;62.00;;;;;;5049886;23;20878;-69
2021/12/03 09:19:32;;;;;;;1.63;0.80;;;25.20;62.10;;;;;;5069746;23;20029;-70
2021/12/03 09:21:35;;;;;;;2.42;0.93;;;25.20;62.70;;;;;;5050571;23;20033;-69
2021/12/03 09:25:48;;;;;;;2.60;0.90;;;25.30;62.10;;;;;;5087594;23;20025;-70
2021/12/03 09:27:52;;;;;;;3.88;0.95;;;25.30;62.00;;;;;;5098130;23;20072;-71
2021/12/03 09:29:56;;;;;;;2.03;0.68;;;25.30;62.00;;;;;;5069128;23;20036;-69
2021/12/03 09:31:59;;;;;;;1.63;0.95;;;25.30;62.10;;;;;;5063204;23;20033;-69
2021/12/03 09:34:01;;;;;;;1.95;0.98;;;25.30;62.00;;;;;;5062838;23;20029;-70
2021/12/03 09:36:05;;;;;;;6.15;1.67;;;25.30;61.90;;;;;;5089066;23;20056;-69
2021/12/03 09:38:08;;;;;;;5.43;1.80;;;25.30;62.40;;;;;;5071649;23;20123;-68
2021/12/03 09:40:19;;;;;;;3.63;1.60;;;25.30;61.90;;;;;;5036282;23;20034;-69
2021/12/03 09:42:22;;;;;;;2.80;1.25;;;25.30;61.90;;;;;;5036218;23;20415;-70
2021/12/03 09:44:26;;;;;;;2.22;1.30;;;25.30;62.20;;;;;;5035521;23;20089;-70
2021/12/03 09:46:30;;;;;;;2.83;0.88;;;25.30;61.90;;;;;;5037637;23;20029;-70
2021/12/03 09:48:50;;;;;;;3.17;1.33;;;25.40;62.00;;;;;;5040997;23;20081;-70
2021/12/03 09:50:52;;;;;;;2.10;1.08;;;25.40;62.00;;;;;;5057609;23;20033;-73
2021/12/03 09:55:16;;;;;;;2.55;1.00;;;25.40;62.00;;;;;;5057105;23;20100;-70
2021/12/03 10:54:24;;;;;;;0.80;0.60;;;25.50;61.60;;;;;;5149556;22;20028;-49
2021/12/03 10:56:47;;;;;;;1.98;0.80;;;25.50;61.60;;;;;;5135170;22;20119;-49
2021/12/03 10:59:11;;;;;;;1.20;0.70;;;25.50;61.50;;;;;;5131242;23;20118;-53
2021/12/03 11:13:13;;;;;;;1.90;0.70;;;25.50;62.70;;;;;;5135430;23;20055;-52
2021/12/03 11:20:21;;;;;;;1.25;0.63;;;25.50;62.70;;;;;;5135422;22;20035;-51
2021/12/03 11:36:48;;;;;;;1.10;0.60;;;25.60;62.60;;;;;;5080180;22;20682;-54
2021/12/03 11:54:44;;;;;;;1.60;0.82;;;25.60;62.50;;;;;;5124663;23;20119;-50
2021/12/03 12:16:14;;;;;;;1.20;0.70;;;25.70;62.40;;;;;;5133001;23;20145;-51
2021/12/03 12:29:48;;;;;;;1.45;0.85;;;25.70;62.40;;;;;;5130805;23;20493;-56
2021/12/03 12:33:52;;;;;;;2.05;0.75;;;25.70;62.40;;;;;;5135884;23;20659;-54
2021/12/03 12:45:34;;;;;;;;;;;25.60;62.30;;;;;;5129779;23;20100;-47
2021/12/03 13:03:25;;;;;;;1.73;0.73;;;25.50;61.90;;;;;;4176292;27;20441;-48
2021/12/03 13:30:11;;;;;;;2.15;1.00;;;25.40;61.90;;;;;;4161690;28;20566;-47
2021/12/03 14:13:05;;;;;;;2.60;0.98;;;25.10;62.90;;;;;;4138407;28;20061;-51
2021/12/03 14:15:32;;;;;;;4.72;1.50;;;25.20;62.40;;;;;;4130163;28;20056;-52
2021/12/03 14:36:18;;;;;;;4.03;1.10;;;25.10;62.90;;;;;;4131705;28;20045;-48
2021/12/03 14:45:12;;;;;;;2.42;1.13;;;25.10;62.60;;;;;;4130396;28;20152;-51
2021/12/03 14:47:42;;;;;;;2.17;1.20;;;25.10;62.50;;;;;;4131019;28;20617;-50
2021/12/03 14:53:16;;;;;;;2.65;1.10;;;25.00;62.50;;;;;;4131557;28;20049;-51
2021/12/03 14:57:05;;;;;;;2.30;1.15;;;25.00;62.50;;;;;;4137587;28;20060;-52
2021/12/03 14:59:14;;;;;;;4.57;0.70;;;25.00;62.50;;;;;;4137352;28;20399;-51
2021/12/03 15:07:58;;;;;;;1.52;1.00;;;24.90;62.50;;;;;;4133062;28;21264;-51
2021/12/03 15:10:03;;;;;;;1.92;1.00;;;24.90;62.60;;;;;;4138860;28;20092;-54
2021/12/03 15:19:16;;;;;;;3.95;0.95;;;24.90;63.00;;;;;;4138350;28;20064;-50
2021/12/03 15:58:07;;;;;;;1.67;0.85;;;24.60;63.40;;;;;;4122895;28;20120;-46
2021/12/03 16:04:33;;;;;;;1.92;0.60;;;24.60;63.40;;;;;;4161042;28;21690;-50
2021/12/03 16:08:41;;;;;;;1.10;0.90;;;24.60;63.40;;;;;;4159561;28;20063;-45
2021/12/03 16:10:57;;;;;;;2.55;0.80;;;24.60;63.20;;;;;;4166367;28;20064;-50
2021/12/03 16:15:33;;;;;;;1.45;0.75;;;24.60;63.70;;;;;;4159676;28;20059;-49
2021/12/03 16:47:30;;;;;;;2.08;0.85;;;24.40;63.20;;;;;;4165233;28;22604;-48
2021/12/03 16:51:47;;;;;;;2.15;1.08;;;24.40;63.30;;;;;;4167942;28;20238;-48
2021/12/03 16:53:51;;;;;;;1.10;0.70;;;24.40;63.30;;;;;;4143717;28;20599;-49
2021/12/03 16:56:00;;;;;;;3.47;0.90;;;24.40;63.30;;;;;;4143729;28;20099;-45
2021/12/03 16:58:02;;;;;;;1.42;0.85;;;24.40;63.30;;;;;;4144811;28;20084;-45
2021/12/03 17:00:24;;;;;;;1.40;0.70;;;24.40;63.30;;;;;;4143242;28;20179;-47
2021/12/03 17:02:37;;;;;;;2.38;0.90;;;24.40;63.40;;;;;;4143408;28;20063;-45
2021/12/03 17:09:20;;;;;;;2.38;0.88;;;24.40;63.40;;;;;;4148156;28;20075;-47
2021/12/03 17:16:58;;;;;;;1.70;0.90;;;24.40;63.50;;;;;;4140836;28;20113;-45
2021/12/03 17:23:04;;;;;;;2.33;1.00;;;24.40;63.50;;;;;;4136242;28;20052;-50
2021/12/03 17:25:10;;;;;;;2.70;1.05;;;24.40;63.50;;;;;;4130456;28;20097;-50
2021/12/03 17:56:46;;;;;;;1.40;0.90;;;24.20;63.50;;;;;;4135806;28;20099;-51
2021/12/03 17:58:56;;;;;;;1.27;0.70;;;24.20;63.50;;;;;;4137254;28;20057;-49
2021/12/03 18:03:07;;;;;;;2.13;0.82;;;24.20;63.50;;;;;;4130612;28;20041;-49
2021/12/03 18:05:46;;;;;;;1.13;0.68;;;24.20;63.50;;;;;;4126920;28;20060;-52
2021/12/03 18:19:18;;;;;;;2.13;1.15;;;24.10;63.60;;;;;;4133801;28;20053;-53
2021/12/03 18:47:35;;;;;;;2.67;1.00;;;24.00;64.30;;;;;;4131794;28;20107;-49
2021/12/03 18:51:34;;;;;;;2.47;1.00;;;24.00;63.80;;;;;;4136029;28;20083;-46
2021/12/03 18:54:01;;;;;;;1.02;0.68;;;24.00;63.80;;;;;;4135389;28;20463;-51
2021/12/03 18:56:06;;;;;;;2.58;0.70;;;23.90;63.80;;;;;;4127254;28;20045;-49
2021/12/03 18:58:09;;;;;;;3.03;0.80;;;24.00;63.80;;;;;;4128241;28;20622;-51
2021/12/03 19:02:11;;;;;;;2.08;0.88;;;24.00;63.30;;;;;;4186806;27;20439;-50
2021/12/03 19:04:25;;;;;;;2.30;0.98;;;24.00;64.00;;;;;;4174508;28;20079;-47
2021/12/03 19:06:31;;;;;;;1.67;0.80;;;23.90;63.90;;;;;;4182028;28;20047;-51
2021/12/03 19:10:43;;;;;;;2.53;0.90;;;23.90;64.10;;;;;;4186199;28;20135;-46
2021/12/03 19:12:52;;;;;;;1.38;0.75;;;23.90;64.20;;;;;;4185491;28;20143;-44
2021/12/03 19:14:58;;;;;;;1.13;0.77;;;23.90;64.00;;;;;;4188615;28;20090;-46
2021/12/03 19:17:00;;;;;;;1.67;1.00;;;23.90;64.00;;;;;;4189003;28;20051;-54
2021/12/03 19:19:05;;;;;;;4.38;0.93;;;23.90;64.20;;;;;;4179614;28;20044;-50
2021/12/03 19:21:10;;;;;;;1.35;0.60;;;23.90;64.30;;;;;;4172777;28;20158;-50
2021/12/03 19:23:12;;;;;;;1.48;0.70;;;23.90;64.40;;;;;;4173854;28;20048;-53
2021/12/03 19:25:16;;;;;;;2.15;0.70;;;23.90;64.20;;;;;;4189277;28;20048;-50
2021/12/03 19:27:23;;;;;;;1.80;0.75;;;23.90;64.20;;;;;;4182350;28;22175;-50
2021/12/03 19:29:26;;;;;;;2.17;0.80;;;23.90;64.20;;;;;;4180541;28;20060;-50
2021/12/03 19:31:29;;;;;;;4.90;0.77;;;23.90;64.30;;;;;;4181467;28;20051;-47
2021/12/03 19:33:33;;;;;;;1.42;0.82;;;23.90;64.30;;;;;;4186235;28;20095;-46
2021/12/03 19:35:37;;;;;;;3.03;0.80;;;23.90;64.00;;;;;;4181156;28;20523;-46
2021/12/03 19:37:39;;;;;;;2.25;0.80;;;23.90;64.10;;;;;;4181167;28;20048;-46
2021/12/03 19:39:42;;;;;;;1.45;0.80;;;23.90;64.10;;;;;;4180860;28;20359;-51
2021/12/03 19:42:01;;;;;;;2.33;0.70;;;23.90;64.10;;;;;;4187450;28;20052;-51
2021/12/03 19:44:09;;;;;;;2.15;0.70;;;23.80;64.00;;;;;;4180048;28;20044;-52
2021/12/03 19:46:18;;;;;;;1.17;0.52;;;23.80;64.00;;;;;;4172637;28;20056;-49
2021/12/03 19:48:20;;;;;;;1.90;0.88;;;23.80;63.90;;;;;;4183097;28;20478;-47
2021/12/03 19:52:26;;;;;;;2.80;0.95;;;23.80;64.00;;;;;;4181216;28;20059;-47
2021/12/03 19:54:28;;;;;;;1.23;0.75;;;23.80;64.00;;;;;;4180435;28;20067;-48
2021/12/03 19:56:33;;;;;;;2.25;0.70;;;23.80;64.00;;;;;;4184974;28;20109;-44
2021/12/03 19:58:35;;;;;;;0.75;0.60;;;23.80;64.10;;;;;;4186606;28;20126;-48
2021/12/03 20:00:38;;;;;;;1.90;0.77;;;23.80;64.10;;;;;;4181128;28;20635;-46
2021/12/03 20:02:41;;;;;;;1.67;0.68;;;23.80;64.20;;;;;;4180414;28;20055;-47
2021/12/03 20:04:43;;;;;;;1.27;0.63;;;23.70;64.10;;;;;;4183912;28;20055;-47
2021/12/03 20:06:46;;;;;;;2.15;0.60;;;23.70;64.10;;;;;;4187277;28;20794;-46
2021/12/03 20:08:51;;;;;;;;;;;23.70;64.10;;;;;;4179984;28;20048;-47
2021/12/03 20:10:57;;;;;;;1.55;0.60;;;23.70;64.10;;;;;;4180163;28;20286;-47
2021/12/03 20:13:00;;;;;;;0.85;0.63;;;23.70;64.10;;;;;;4161934;28;20141;-47
2021/12/03 20:15:07;;;;;;;0.73;0.52;;;23.70;64.20;;;;;;4171039;28;20052;-50
2021/12/03 20:19:27;;;;;;;1.02;0.70;;;23.70;64.30;;;;;;4166825;28;20109;-48
2021/12/03 20:21:30;;;;;;;0.73;0.50;;;23.70;64.30;;;;;;4168803;28;20044;-47
2021/12/03 20:23:39;;;;;;;1.73;0.70;;;23.70;64.30;;;;;;4162757;28;20101;-48
2021/12/03 20:28:07;;;;;;;1.20;0.82;;;23.60;64.40;;;;;;4160583;28;20052;-48
2021/12/03 20:30:15;;;;;;;;;;;23.60;64.50;;;;;;4162228;28;20044;-48
2021/12/03 20:34:45;;;;;;;0.73;0.73;;;23.60;65.10;;;;;;4159216;28;20044;-50
2021/12/03 20:38:57;;;;;;;3.13;0.90;;;23.60;64.70;;;;;;4158060;28;20686;-49